| time (UTC) | temp C | wind direction | speed KPH | gust KPH | rain 1hr cm | rain 24hr cm | rain mn cm | humidity % | barometer mb |
| 20260508124609 | 21 | 40 | 6.4 | 11.3 | 0.00 | 0.00 | 0.00 | 88 | 1015.8 |
| 20260508124106 | 21 | 39 | 3.2 | 9.7 | 0.00 | 0.00 | 0.00 | 88 | 1015.9 |
| 20260508123604 | 21 | 38 | 3.2 | 11.3 | 0.00 | 0.00 | 0.00 | 89 | 1015.8 |
| 20260508123101 | 21 | 96 | 4.8 | 12.9 | 0.00 | 0.00 | 0.00 | 89 | 1016.0 |
| 20260508122557 | 21 | 54 | 9.7 | 12.9 | 0.00 | 0.00 | 0.00 | 89 | 1015.5 |
| 20260508122055 | 21 | 44 | 3.2 | 11.3 | 0.00 | 0.00 | 0.00 | 88 | 1015.4 |
| 20260508121553 | 21 | 113 | 4.8 | 6.4 | 0.00 | 0.00 | 0.00 | 88 | 1015.5 |
| 20260508121051 | 21 | 38 | 3.2 | 6.4 | 0.00 | 0.00 | 0.00 | 88 | 1015.5 |
| 20260508120548 | 21 | 37 | 1.6 | 4.8 | 0.00 | 0.00 | 0.00 | 88 | 1015.4 |
| 20260508120046 | 21 | 46 | 3.2 | 6.4 | 0.00 | 0.00 | 0.00 | 88 | 1015.1 |
| 20260508115543 | 21 | 137 | 3.2 | 6.4 | 0.00 | 0.00 | 0.00 | 88 | 1014.6 |
| 20260508115040 | 21 | 74 | 4.8 | 12.9 | 0.00 | 0.00 | 0.00 | 88 | 1014.4 |
| 20260508114537 | 20 | 109 | 4.8 | 6.4 | 0.00 | 0.00 | 0.00 | 88 | 1014.6 |
| 20260508114033 | 20 | 74 | 4.8 | 4.8 | 0.00 | 0.00 | 0.00 | 88 | 1014.7 |
| 20260508113531 | 20 | 122 | 6.4 | 11.3 | 0.00 | 0.00 | 0.00 | 88 | 1014.4 |
| 20260508113029 | 20 | 113 | 8.0 | 9.7 | 0.00 | 0.00 | 0.00 | 88 | 1014.8 |
| 20260508112524 | 21 | 48 | 6.4 | 6.4 | 0.00 | 0.00 | 0.00 | 88 | 1015.1 |
| 20260508112021 | 21 | 126 | 3.2 | 9.7 | 0.00 | 0.00 | 0.00 | 88 | 1015.3 |
| 20260508111519 | 21 | 56 | 3.2 | 4.8 | 0.00 | 0.00 | 0.00 | 89 | 1015.3 |
| 20260508111015 | 21 | 38 | 3.2 | 4.8 | 0.00 | 0.00 | 0.00 | 89 | 1015.3 |
| 20260508110513 | 21 | 102 | 0.0 | 4.8 | 0.00 | 0.00 | 0.00 | 89 | 1015.2 |
| 20260508110009 | 20 | 30 | 3.2 | 6.4 | 0.00 | 0.00 | 0.00 | 89 | 1015.0 |
| 20260508105504 | 20 | 119 | 1.6 | 4.8 | 0.00 | 0.00 | 0.00 | 89 | 1015.1 |
| 20260508105001 | 20 | 47 | 3.2 | 4.8 | 0.00 | 0.00 | 0.00 | 89 | 1015.4 |
| 20260508104459 | 20 | 54 | 1.6 | 3.2 | 0.00 | 0.00 | 0.00 | 90 | 1015.2 |
| 20260508103955 | 20 | 0 | 3.2 | 3.2 | 0.00 | 0.00 | 0.00 | 90 | 1015.0 |
| 20260508103452 | 20 | 19 | 0.0 | 3.2 | 0.00 | 0.00 | 0.00 | 90 | 1014.8 |
| 20260508102949 | 20 | 114 | 3.2 | 4.8 | 0.00 | 0.00 | 0.00 | 90 | 1014.5 |
| 20260508102448 | 20 | 152 | 6.4 | 9.7 | 0.00 | 0.00 | 0.00 | 90 | 1014.5 |
| 20260508101944 | 20 | 75 | 1.6 | 3.2 | 0.00 | 0.00 | 0.00 | 90 | 1014.3 |
| 20260508101442 | 20 | 116 | 1.6 | 4.8 | 0.00 | 0.00 | 0.00 | 90 | 1014.2 |
| 20260508100939 | 20 | 84 | 3.2 | 11.3 | 0.00 | 0.00 | 0.00 | 90 | 1013.7 |
| 20260508100438 | 20 | 115 | 3.2 | 4.8 | 0.00 | 0.00 | 0.00 | 90 | 1013.7 |
| 20260508095934 | 20 | 93 | 4.8 | 11.3 | 0.00 | 0.00 | 0.00 | 91 | 1013.6 |
| 20260508095431 | 20 | 49 | 4.8 | 14.5 | 0.00 | 0.00 | 0.00 | 91 | 1014.1 |
| 20260508094928 | 20 | 101 | 3.2 | 9.7 | 0.00 | 0.00 | 0.00 | 91 | 1013.8 |
| 20260508094424 | 20 | 99 | 8.0 | 9.7 | 0.00 | 0.00 | 0.00 | 91 | 1013.9 |
| 20260508093921 | 20 | 113 | 11.3 | 12.9 | 0.00 | 0.00 | 0.00 | 91 | 1013.8 |
| 20260508093419 | 21 | 36 | 1.6 | 4.8 | 0.00 | 0.00 | 0.00 | 91 | 1014.1 |
| 20260508092917 | 20 | 39 | 11.3 | 14.5 | 0.00 | 0.00 | 0.00 | 91 | 1013.9 |
| 20260508092414 | 21 | 277 | 6.4 | 9.7 | 0.00 | 0.00 | 0.00 | 91 | 1013.9 |
| 20260508091912 | 21 | 21 | 4.8 | 9.7 | 0.00 | 0.00 | 0.00 | 91 | 1013.8 |
| 20260508091409 | 21 | 98 | 1.6 | 9.7 | 0.00 | 0.00 | 0.00 | 91 | 1013.7 |
| 20260508090906 | 21 | 3 | 4.8 | 6.4 | 0.00 | 0.00 | 0.00 | 91 | 1013.8 |
| 20260508090405 | 21 | 109 | 6.4 | 9.7 | 0.00 | 0.00 | 0.00 | 91 | 1014.0 |
| 20260508085900 | 21 | 34 | 6.4 | 6.4 | 0.00 | 0.00 | 0.00 | 91 | 1013.8 |
| 20260508085357 | 21 | 76 | 3.2 | 6.4 | 0.00 | 0.00 | 0.00 | 91 | 1013.8 |
| 20260508084854 | 21 | 142 | 1.6 | 9.7 | 0.00 | 0.00 | 0.00 | 91 | 1013.9 |
| 20260508084350 | 21 | 84 | 4.8 | 9.7 | 0.00 | 0.00 | 0.00 | 90 | 1014.0 |
| 20260508083849 | 21 | 17 | 1.6 | 6.4 | 0.00 | 0.00 | 0.00 | 90 | 1013.7 |
| 20260508083346 | 21 | 45 | 1.6 | 3.2 | 0.00 | 0.00 | 0.00 | 90 | 1013.9 |
| 20260508082845 | 21 | 58 | 3.2 | 6.4 | 0.00 | 0.00 | 0.00 | 90 | 1013.7 |
| 20260508082343 | 21 | 62 | 8.0 | 11.3 | 0.00 | 0.00 | 0.00 | 90 | 1013.8 |
| 20260508081840 | 21 | 47 | 1.6 | 4.8 | 0.00 | 0.00 | 0.00 | 90 | 1013.9 |
| 20260508081337 | 21 | 44 | 3.2 | 9.7 | 0.00 | 0.00 | 0.00 | 90 | 1013.6 |
| 20260508080834 | 21 | 33 | 1.6 | 4.8 | 0.00 | 0.00 | 0.00 | 90 | 1013.8 |
| 20260508080332 | 21 | 113 | 3.2 | 4.8 | 0.00 | 0.00 | 0.00 | 90 | 1013.9 |
| 20260508075828 | 21 | 50 | 3.2 | 4.8 | 0.00 | 0.00 | 0.00 | 90 | 1013.6 |
| 20260508075325 | 21 | 119 | 3.2 | 11.3 | 0.00 | 0.00 | 0.00 | 90 | 1013.8 |
| 20260508074823 | 21 | 89 | 3.2 | 4.8 | 0.00 | 0.00 | 0.00 | 89 | 1013.9 |
| 20260508074320 | 21 | 20 | 3.2 | 9.7 | 0.00 | 0.00 | 0.00 | 89 | 1014.1 |
| 20260508073817 | 22 | 27 | 0.0 | 1.6 | 0.00 | 0.00 | 0.00 | 89 | 1014.2 |
| 20260508073315 | 22 | 24 | 0.0 | 6.4 | 0.00 | 0.00 | 0.00 | 89 | 1014.3 |
| 20260508072811 | 22 | 97 | 3.2 | 6.4 | 0.00 | 0.00 | 0.00 | 89 | 1014.1 |
| 20260508072308 | 22 | 118 | 3.2 | 4.8 | 0.00 | 0.00 | 0.00 | 89 | 1014.0 |
| 20260508071805 | 22 | 83 | 1.6 | 3.2 | 0.00 | 0.00 | 0.00 | 89 | 1014.0 |
| 20260508071303 | 22 | 65 | 1.6 | 4.8 | 0.00 | 0.00 | 0.00 | 89 | 1013.9 |
| 20260508070800 | 22 | 46 | 3.2 | 3.2 | 0.00 | 0.00 | 0.00 | 89 | 1014.1 |
| 20260508070259 | 22 | 359 | 1.6 | 3.2 | 0.00 | 0.00 | 0.00 | 89 | 1014.3 |
| 20260508065756 | 22 | 75 | 1.6 | 3.2 | 0.00 | 0.00 | 0.00 | 89 | 1014.1 |
| 20260508065253 | 22 | 108 | 1.6 | 3.2 | 0.00 | 0.00 | 0.00 | 89 | 1014.5 |
| 20260508064752 | 22 | 20 | 0.0 | 4.8 | 0.00 | 0.00 | 0.00 | 89 | 1014.6 |
| 20260508064249 | 22 | 35 | 1.6 | 6.4 | 0.00 | 0.00 | 0.00 | 89 | 1014.9 |
| 20260508063746 | 22 | 15 | 3.2 | 4.8 | 0.00 | 0.00 | 0.00 | 89 | 1014.9 |
| 20260508063244 | 22 | 21 | 1.6 | 6.4 | 0.00 | 0.00 | 0.00 | 89 | 1014.7 |
| 20260508062741 | 22 | 122 | 1.6 | 4.8 | 0.00 | 0.00 | 0.00 | 89 | 1014.9 |
| 20260508062239 | 22 | 102 | 3.2 | 3.2 | 0.00 | 0.00 | 0.00 | 89 | 1014.7 |
| 20260508061735 | 22 | 83 | 0.0 | 3.2 | 0.00 | 0.00 | 0.00 | 89 | 1014.8 |
| 20260508061233 | 22 | 39 | 3.2 | 3.2 | 0.00 | 0.00 | 0.00 | 89 | 1014.8 |
| 20260508060729 | 22 | 79 | 3.2 | 11.3 | 0.00 | 0.00 | 0.00 | 89 | 1014.6 |
| 20260508060227 | 22 | 20 | 1.6 | 1.6 | 0.00 | 0.00 | 0.00 | 89 | 1014.4 |
| 20260508055722 | 22 | 101 | 1.6 | 4.8 | 0.00 | 0.00 | 0.00 | 89 | 1014.5 |
| 20260508055219 | 22 | 300 | 0.0 | 3.2 | 0.00 | 0.00 | 0.00 | 89 | 1014.7 |
| 20260508054716 | 22 | 313 | 0.0 | 1.6 | 0.00 | 0.00 | 0.00 | 89 | 1015.1 |
| 20260508054214 | 22 | 99 | 1.6 | 4.8 | 0.00 | 0.00 | 0.00 | 89 | 1015.2 |
| 20260508053710 | 22 | 8 | 0.0 | 3.2 | 0.00 | 0.00 | 0.00 | 89 | 1015.3 |
| 20260508053208 | 22 | 17 | 3.2 | 11.3 | 0.00 | 0.00 | 0.00 | 89 | 1015.1 |
| 20260508052705 | 22 | 102 | 0.0 | 3.2 | 0.00 | 0.00 | 0.00 | 89 | 1015.4 |
| 20260508052202 | 22 | 79 | 1.6 | 4.8 | 0.00 | 0.00 | 0.00 | 89 | 1015.4 |
| 20260508051658 | 22 | 131 | 3.2 | 4.8 | 0.00 | 0.00 | 0.00 | 89 | 1015.3 |
| 20260508051154 | 22 | 84 | 3.2 | 9.7 | 0.00 | 0.00 | 0.00 | 89 | 1015.2 |
| 20260508050650 | 22 | 109 | 3.2 | 4.8 | 0.00 | 0.00 | 0.00 | 89 | 1015.0 |
| 20260508050148 | 22 | 84 | 1.6 | 4.8 | 0.00 | 0.00 | 0.00 | 90 | 1015.2 |
| 20260508045643 | 22 | 15 | 3.2 | 6.4 | 0.00 | 0.03 | 0.03 | 89 | 1015.3 |
| 20260508045141 | 22 | 305 | 3.2 | 4.8 | 0.00 | 0.03 | 0.03 | 90 | 1015.5 |
| 20260508044638 | 22 | 55 | 3.2 | 9.7 | 0.00 | 0.03 | 0.03 | 90 | 1015.5 |
| 20260508044134 | 22 | 48 | 3.2 | 4.8 | 0.00 | 0.03 | 0.03 | 89 | 1015.4 |
| 20260508043631 | 22 | 14 | 4.8 | 6.4 | 0.00 | 0.03 | 0.03 | 89 | 1015.6 |
| 20260508043129 | 22 | 40 | 1.6 | 3.2 | 0.00 | 0.03 | 0.03 | 89 | 1015.7 |
| 20260508042625 | 22 | 48 | 1.6 | 3.2 | 0.00 | 0.03 | 0.03 | 89 | 1015.8 |
| 20260508042123 | 22 | 67 | 6.4 | 9.7 | 0.00 | 0.03 | 0.03 | 89 | 1015.7 |
| 20260508041619 | 22 | 73 | 0.0 | 9.7 | 0.00 | 0.03 | 0.03 | 89 | 1015.5 |
| 20260508041115 | 22 | 112 | 3.2 | 4.8 | 0.00 | 0.03 | 0.03 | 89 | 1015.6 |
| 20260508040612 | 22 | 351 | 1.6 | 6.4 | 0.00 | 0.03 | 0.03 | 89 | 1015.5 |
| 20260508040110 | 22 | 32 | 6.4 | 9.7 | 0.00 | 0.03 | 0.03 | 89 | 1015.4 |
| 20260508035607 | 22 | 47 | 1.6 | 6.4 | 0.00 | 0.03 | 0.03 | 89 | 1015.5 |
| 20260508035104 | 22 | 130 | 4.8 | 11.3 | 0.00 | 0.03 | 0.03 | 89 | 1015.8 |
| 20260508034601 | 22 | 43 | 1.6 | 9.7 | 0.00 | 0.03 | 0.03 | 88 | 1016.0 |
| 20260508034058 | 22 | 324 | 3.2 | 9.7 | 0.00 | 0.03 | 0.03 | 88 | 1016.1 |
| 20260508033555 | 22 | 76 | 4.8 | 14.5 | 0.00 | 0.03 | 0.03 | 88 | 1016.0 |
| 20260508033054 | 22 | 57 | 8.0 | 14.5 | 0.00 | 0.03 | 0.03 | 88 | 1015.8 |
| 20260508032549 | 22 | 264 | 0.0 | 6.4 | 0.00 | 0.03 | 0.03 | 88 | 1015.9 |
| 20260508032048 | 22 | 40 | 1.6 | 6.4 | 0.00 | 0.03 | 0.03 | 87 | 1015.8 |
| 20260508031544 | 23 | 321 | 1.6 | 6.4 | 0.00 | 0.03 | 0.03 | 87 | 1015.6 |
| 20260508031040 | 23 | 217 | 6.4 | 12.9 | 0.00 | 0.03 | 0.03 | 87 | 1015.9 |
| 20260508030537 | 23 | 10 | 3.2 | 4.8 | 0.00 | 0.03 | 0.03 | 86 | 1015.9 |
| 20260508030035 | 23 | 35 | 3.2 | 11.3 | 0.00 | 0.03 | 0.03 | 86 | 1015.6 |
| 20260508025530 | 23 | 53 | 4.8 | 12.9 | 0.00 | 0.03 | 0.03 | 86 | 1015.4 |
| 20260508025028 | 23 | 0 | 0.0 | 9.7 | 0.00 | 0.03 | 0.03 | 86 | 1015.2 |
| 20260508024524 | 23 | 49 | 8.0 | 12.9 | 0.00 | 0.03 | 0.03 | 86 | 1014.9 |
| 20260508024021 | 23 | 44 | 9.7 | 12.9 | 0.00 | 0.03 | 0.03 | 86 | 1015.3 |
| 20260508023517 | 23 | 61 | 14.5 | 16.1 | 0.00 | 0.03 | 0.03 | 85 | 1015.2 |
| 20260508023015 | 23 | 54 | 8.0 | 11.3 | 0.00 | 0.03 | 0.03 | 84 | 1015.0 |
| 20260508022510 | 23 | 91 | 3.2 | 12.9 | 0.00 | 0.03 | 0.03 | 85 | 1015.2 |
| 20260508022008 | 23 | 40 | 3.2 | 6.4 | 0.00 | 0.03 | 0.03 | 85 | 1015.1 |
| 20260508021503 | 23 | 44 | 4.8 | 12.9 | 0.00 | 0.03 | 0.03 | 84 | 1015.2 |
| 20260508020959 | 23 | 14 | 3.2 | 12.9 | 0.00 | 0.03 | 0.03 | 85 | 1015.0 |
| 20260508020457 | 24 | 2 | 4.8 | 6.4 | 0.00 | 0.03 | 0.03 | 84 | 1015.5 |
| 20260508015954 | 24 | 46 | 3.2 | 12.9 | 0.00 | 0.03 | 0.03 | 84 | 1015.4 |
| 20260508015452 | 24 | 334 | 3.2 | 6.4 | 0.00 | 0.03 | 0.03 | 84 | 1015.6 |
| 20260508014949 | 24 | 30 | 6.4 | 9.7 | 0.00 | 0.03 | 0.03 | 83 | 1015.0 |
| 20260508014445 | 24 | 66 | 3.2 | 4.8 | 0.00 | 0.03 | 0.03 | 83 | 1015.1 |
| 20260508013941 | 24 | 50 | 6.4 | 12.9 | 0.00 | 0.03 | 0.03 | 83 | 1015.0 |
| 20260508013437 | 24 | 347 | 8.0 | 11.3 | 0.00 | 0.03 | 0.03 | 83 | 1015.0 |
| 20260508012935 | 24 | 44 | 1.6 | 11.3 | 0.00 | 0.03 | 0.03 | 84 | 1014.8 |
| 20260508012432 | 24 | 69 | 3.2 | 4.8 | 0.00 | 0.03 | 0.03 | 84 | 1014.7 |
| 20260508011929 | 24 | 63 | 3.2 | 11.3 | 0.00 | 0.03 | 0.03 | 84 | 1014.7 |
| 20260508011427 | 24 | 50 | 6.4 | 9.7 | 0.00 | 0.03 | 0.03 | 84 | 1014.6 |
| 20260508010924 | 23 | 42 | 3.2 | 6.4 | 0.00 | 0.03 | 0.03 | 85 | 1014.6 |
| 20260508010421 | 24 | 73 | 1.6 | 3.2 | 0.00 | 0.03 | 0.03 | 86 | 1014.8 |
| 20260508005918 | 23 | 64 | 0.0 | 4.8 | 0.00 | 0.03 | 0.03 | 86 | 1014.6 |
| 20260508005415 | 23 | 7 | 3.2 | 4.8 | 0.00 | 0.03 | 0.03 | 86 | 1014.5 |
| 20260508004912 | 23 | 35 | 4.8 | 9.7 | 0.00 | 0.03 | 0.03 | 86 | 1014.5 |
| 20260508004408 | 23 | 299 | 6.4 | 6.4 | 0.00 | 0.03 | 0.03 | 87 | 1014.3 |
| 20260508003905 | 23 | 36 | 3.2 | 4.8 | 0.00 | 0.03 | 0.03 | 87 | 1014.0 |
| 20260508003401 | 24 | 65 | 1.6 | 6.4 | 0.00 | 0.03 | 0.03 | 87 | 1014.1 |
| 20260508002859 | 24 | 26 | 4.8 | 4.8 | 0.00 | 0.03 | 0.03 | 87 | 1014.1 |
| 20260508002355 | 24 | 61 | 4.8 | 4.8 | 0.00 | 0.03 | 0.03 | 87 | 1014.3 |
| 20260508001851 | 24 | 344 | 0.0 | 1.6 | 0.00 | 0.03 | 0.03 | 87 | 1014.2 |
| 20260508001347 | 23 | 5 | 3.2 | 6.4 | 0.00 | 0.03 | 0.03 | 87 | 1014.4 |
| 20260508000844 | 24 | 340 | 1.6 | 3.2 | 0.00 | 0.03 | 0.03 | 86 | 1014.7 |
| 20260508000342 | 24 | 50 | 3.2 | 6.4 | 0.00 | 0.03 | 0.03 | 86 | 1014.8 |
| 20260507235837 | 24 | 340 | 3.2 | 4.8 | 0.00 | 0.03 | 0.03 | 86 | 1014.7 |
| 20260507235335 | 24 | 51 | 4.8 | 6.4 | 0.00 | 0.03 | 0.03 | 86 | 1014.7 |
| 20260507234831 | 24 | 263 | 3.2 | 3.2 | 0.00 | 0.03 | 0.03 | 86 | 1014.5 |
| 20260507234328 | 24 | 43 | 3.2 | 3.2 | 0.00 | 0.03 | 0.03 | 85 | 1014.7 |
| 20260507233824 | 24 | 280 | 3.2 | 4.8 | 0.00 | 0.03 | 0.03 | 85 | 1014.7 |
| 20260507233322 | 24 | 51 | 3.2 | 6.4 | 0.00 | 0.03 | 0.03 | 85 | 1014.5 |
| 20260507232820 | 24 | 24 | 3.2 | 9.7 | 0.00 | 0.03 | 0.03 | 85 | 1014.5 |
| 20260507232316 | 24 | 57 | 3.2 | 4.8 | 0.00 | 0.03 | 0.03 | 84 | 1014.7 |
| 20260507231813 | 24 | 316 | 6.4 | 9.7 | 0.00 | 0.03 | 0.03 | 84 | 1014.8 |
| 20260507231310 | 24 | 347 | 0.0 | 6.4 | 0.00 | 0.03 | 0.03 | 83 | 1014.7 |
| 20260507230806 | 24 | 284 | 1.6 | 4.8 | 0.00 | 0.03 | 0.03 | 83 | 1014.8 |
| 20260507230304 | 24 | 31 | 3.2 | 6.4 | 0.00 | 0.03 | 0.03 | 83 | 1014.8 |
| 20260507225804 | 24 | 269 | 0.0 | 1.6 | 0.00 | 0.03 | 0.03 | 83 | 1014.9 |
| 20260507225300 | 24 | 73 | 0.0 | 3.2 | 0.00 | 0.03 | 0.03 | 83 | 1014.9 |
| 20260507224756 | 24 | 56 | 1.6 | 6.4 | 0.00 | 0.03 | 0.03 | 82 | 1014.8 |
| 20260507224253 | 25 | 5 | 4.8 | 6.4 | 0.00 | 0.03 | 0.03 | 81 | 1014.6 |
| 20260507223749 | 25 | 358 | 6.4 | 9.7 | 0.00 | 0.03 | 0.03 | 80 | 1014.6 |
| 20260507223246 | 25 | 64 | 3.2 | 6.4 | 0.00 | 0.03 | 0.03 | 80 | 1014.7 |
| 20260507222743 | 25 | 295 | 1.6 | 6.4 | 0.00 | 0.03 | 0.03 | 80 | 1014.5 |
| 20260507222238 | 25 | 9 | 3.2 | 6.4 | 0.00 | 0.03 | 0.03 | 79 | 1014.6 |
| 20260507221736 | 25 | 298 | 1.6 | 4.8 | 0.00 | 0.03 | 0.03 | 79 | 1014.6 |
| 20260507221232 | 25 | 48 | 1.6 | 4.8 | 0.00 | 0.03 | 0.03 | 79 | 1014.5 |
| 20260507220728 | 25 | 305 | 3.2 | 6.4 | 0.00 | 0.03 | 0.03 | 80 | 1014.4 |
| 20260507220227 | 25 | 281 | 0.0 | 4.8 | 0.00 | 0.03 | 0.03 | 80 | 1014.4 |
| 20260507215723 | 25 | 293 | 3.2 | 4.8 | 0.00 | 0.03 | 0.03 | 79 | 1014.2 |
| 20260507215220 | 25 | 342 | 1.6 | 6.4 | 0.00 | 0.03 | 0.03 | 80 | 1014.2 |
| 20260507214717 | 25 | 306 | 1.6 | 3.2 | 0.00 | 0.03 | 0.03 | 81 | 1014.3 |
| 20260507214215 | 25 | 46 | 0.0 | 4.8 | 0.00 | 0.03 | 0.03 | 81 | 1014.4 |
| 20260507213709 | 24 | 27 | 3.2 | 4.8 | 0.00 | 0.03 | 0.03 | 81 | 1014.4 |
| 20260507213207 | 24 | 292 | 1.6 | 3.2 | 0.00 | 0.03 | 0.03 | 82 | 1014.5 |
| 20260507212703 | 24 | 329 | 1.6 | 3.2 | 0.00 | 0.03 | 0.03 | 82 | 1014.4 |
| 20260507212200 | 24 | 284 | 0.0 | 3.2 | 0.00 | 0.03 | 0.03 | 82 | 1014.3 |
| 20260507211657 | 24 | 24 | 1.6 | 1.6 | 0.00 | 0.03 | 0.03 | 82 | 1014.6 |
| 20260507211152 | 24 | 53 | 3.2 | 4.8 | 0.00 | 0.03 | 0.03 | 82 | 1014.6 |
| 20260507210650 | 23 | 303 | 1.6 | 3.2 | 0.00 | 0.03 | 0.03 | 83 | 1014.4 |
| 20260507210146 | 23 | 32 | 4.8 | 6.4 | 0.00 | 0.03 | 0.03 | 84 | 1014.5 |
| 20260507205643 | 23 | 54 | 1.6 | 3.2 | 0.00 | 0.03 | 0.03 | 84 | 1014.6 |
| 20260507205140 | 23 | 292 | 0.0 | 0.0 | 0.00 | 0.03 | 0.03 | 84 | 1014.7 |
| 20260507204636 | 23 | 298 | 0.0 | 3.2 | 0.00 | 0.03 | 0.03 | 85 | 1014.5 |
| 20260507204134 | 23 | 276 | 0.0 | 6.4 | 0.00 | 0.03 | 0.03 | 86 | 1014.7 |
| 20260507203631 | 23 | 312 | 3.2 | 4.8 | 0.00 | 0.03 | 0.03 | 86 | 1014.6 |
| 20260507203129 | 22 | 293 | 1.6 | 4.8 | 0.00 | 0.03 | 0.03 | 87 | 1014.7 |
| 20260507202624 | 22 | 83 | 3.2 | 9.7 | 0.00 | 0.03 | 0.03 | 87 | 1014.6 |
| 20260507202121 | 22 | 6 | 4.8 | 6.4 | 0.00 | 0.03 | 0.03 | 88 | 1014.6 |
| 20260507201616 | 22 | 24 | 6.4 | 9.7 | 0.00 | 0.03 | 0.03 | 87 | 1014.7 |
| 20260507201113 | 22 | 15 | 3.2 | 4.8 | 0.00 | 0.03 | 0.03 | 87 | 1014.9 |
| 20260507200609 | 22 | 48 | 4.8 | 4.8 | 0.00 | 0.03 | 0.03 | 88 | 1014.9 |
| 20260507200105 | 22 | 265 | 4.8 | 6.4 | 0.00 | 0.03 | 0.03 | 88 | 1014.7 |
| 20260507195602 | 22 | 215 | 3.2 | 6.4 | 0.00 | 0.03 | 0.03 | 88 | 1014.8 |
| 20260507195059 | 22 | 289 | 0.0 | 6.4 | 0.00 | 0.03 | 0.03 | 88 | 1014.8 |
| 20260507194555 | 22 | 286 | 0.0 | 9.7 | 0.00 | 0.03 | 0.03 | 88 | 1014.7 |
| 20260507194052 | 22 | 30 | 3.2 | 4.8 | 0.00 | 0.03 | 0.03 | 88 | 1014.9 |
| 20260507193549 | 22 | 341 | 3.2 | 9.7 | 0.00 | 0.03 | 0.03 | 87 | 1014.9 |
| 20260507193046 | 22 | 37 | 3.2 | 4.8 | 0.00 | 0.03 | 0.03 | 87 | 1014.7 |
| 20260507192542 | 22 | 37 | 4.8 | 6.4 | 0.00 | 0.03 | 0.03 | 88 | 1015.0 |
| 20260507192039 | 22 | 25 | 4.8 | 9.7 | 0.00 | 0.03 | 0.03 | 88 | 1015.1 |
| 20260507191534 | 22 | 57 | 3.2 | 6.4 | 0.00 | 0.03 | 0.03 | 88 | 1015.1 |
| 20260507191032 | 22 | 31 | 8.0 | 11.3 | 0.00 | 0.03 | 0.03 | 88 | 1015.1 |
| 20260507190529 | 22 | 19 | 6.4 | 11.3 | 0.00 | 0.03 | 0.03 | 88 | 1015.0 |
| 20260507190028 | 22 | 17 | 3.2 | 11.3 | 0.00 | 0.03 | 0.03 | 88 | 1015.1 |
| 20260507185526 | 22 | 24 | 1.6 | 6.4 | 0.00 | 0.03 | 0.03 | 88 | 1015.1 |
| 20260507185022 | 22 | 43 | 1.6 | 6.4 | 0.00 | 0.03 | 0.03 | 88 | 1015.1 |
| 20260507184520 | 22 | 39 | 1.6 | 6.4 | 0.00 | 0.03 | 0.03 | 89 | 1015.2 |
| 20260507184018 | 22 | 56 | 1.6 | 9.7 | 0.00 | 0.03 | 0.03 | 89 | 1015.1 |
| 20260507183513 | 22 | 56 | 3.2 | 6.4 | 0.00 | 0.03 | 0.03 | 87 | 1015.4 |
| 20260507183011 | 23 | 18 | 4.8 | 6.4 | 0.00 | 0.03 | 0.03 | 87 | 1015.3 |
| 20260507182507 | 22 | 38 | 1.6 | 4.8 | 0.00 | 0.03 | 0.03 | 90 | 1015.4 |
| 20260507182003 | 22 | 334 | 4.8 | 9.7 | 0.00 | 0.03 | 0.03 | 91 | 1015.4 |
| 20260507181500 | 22 | 14 | 0.0 | 4.8 | 0.00 | 0.03 | 0.03 | 93 | 1015.4 |
| 20260507180956 | 21 | 322 | 3.2 | 9.7 | 0.00 | 0.03 | 0.03 | 94 | 1015.6 |
| 20260507180453 | 21 | 27 | 6.4 | 11.3 | 0.00 | 0.03 | 0.03 | 94 | 1015.6 |
| 20260507175948 | 21 | 41 | 3.2 | 6.4 | 0.00 | 0.03 | 0.03 | 95 | 1015.6 |
| 20260507175446 | 21 | 354 | 8.0 | 12.9 | 0.00 | 0.03 | 0.03 | 95 | 1015.6 |
| 20260507174943 | 21 | 111 | 1.6 | 4.8 | 0.00 | 0.03 | 0.03 | 96 | 1015.7 |
| 20260507174440 | 21 | 328 | 3.2 | 6.4 | 0.00 | 0.03 | 0.03 | 96 | 1015.7 |
| 20260507173937 | 21 | 327 | 1.6 | 6.4 | 0.00 | 0.03 | 0.03 | 97 | 1015.8 |
| 20260507173435 | 21 | 45 | 8.0 | 11.3 | 0.00 | 0.03 | 0.03 | 97 | 1015.6 |
| 20260507172932 | 21 | 61 | 0.0 | 4.8 | 0.00 | 0.03 | 0.03 | 97 | 1015.7 |
| 20260507172428 | 21 | 4 | 3.2 | 4.8 | 0.00 | 0.03 | 0.03 | 97 | 1015.7 |
| 20260507171924 | 21 | 262 | 3.2 | 9.7 | 0.00 | 0.03 | 0.03 | 96 | 1015.8 |
| 20260507171420 | 21 | 328 | 8.0 | 11.3 | 0.00 | 0.03 | 0.03 | 95 | 1015.8 |
| 20260507170918 | 21 | 28 | 0.0 | 4.8 | 0.00 | 0.03 | 0.03 | 95 | 1015.8 |
| 20260507170414 | 21 | 320 | 3.2 | 6.4 | 0.00 | 0.03 | 0.03 | 94 | 1015.9 |
| 20260507165910 | 21 | 88 | 4.8 | 9.7 | 0.00 | 0.03 | 0.03 | 94 | 1015.8 |
| 20260507165407 | 21 | 58 | 3.2 | 3.2 | 0.00 | 0.03 | 0.03 | 94 | 1016.0 |
| 20260507164902 | 21 | 49 | 8.0 | 12.9 | 0.00 | 0.03 | 0.03 | 93 | 1015.8 |
| 20260507164400 | 21 | 304 | 4.8 | 9.7 | 0.00 | 0.03 | 0.03 | 93 | 1015.9 |
| 20260507163857 | 21 | 269 | 6.4 | 12.9 | 0.00 | 0.03 | 0.03 | 93 | 1015.9 |
| 20260507163354 | 21 | 259 | 0.0 | 3.2 | 0.00 | 0.03 | 0.03 | 94 | 1015.8 |
| 20260507162851 | 21 | 293 | 3.2 | 6.4 | 0.00 | 0.03 | 0.03 | 95 | 1015.8 |
| 20260507162346 | 21 | 19 | 4.8 | 4.8 | 0.00 | 0.03 | 0.03 | 95 | 1015.8 |
| 20260507161843 | 21 | 48 | 1.6 | 6.4 | 0.00 | 0.03 | 0.03 | 96 | 1015.7 |
| 20260507161340 | 21 | 230 | 0.0 | 9.7 | 0.00 | 0.03 | 0.03 | 97 | 1015.9 |
| 20260507160837 | 21 | 340 | 6.4 | 9.7 | 0.00 | 0.03 | 0.03 | 97 | 1015.7 |
| 20260507160332 | 21 | 47 | 3.2 | 6.4 | 0.00 | 0.03 | 0.03 | 97 | 1015.8 |
| 20260507155829 | 21 | 269 | 8.0 | 14.5 | 0.00 | 0.03 | 0.03 | 98 | 1015.9 |
| 20260507155325 | 21 | 325 | 1.6 | 4.8 | 0.00 | 0.03 | 0.03 | 98 | 1015.8 |
| 20260507154822 | 21 | 32 | 0.0 | 9.7 | 0.00 | 0.03 | 0.03 | 98 | 1016.1 |
| 20260507154319 | 21 | 280 | 3.2 | 14.5 | 0.00 | 0.03 | 0.03 | 98 | 1015.7 |
| 20260507153816 | 21 | 16 | 6.4 | 9.7 | 0.00 | 0.03 | 0.03 | 98 | 1015.8 |
| 20260507153312 | 21 | 314 | 3.2 | 9.7 | 0.00 | 0.03 | 0.03 | 99 | 1015.9 |
| 20260507152808 | 21 | 350 | 3.2 | 4.8 | 0.00 | 0.03 | 0.03 | 99 | 1015.9 |
| 20260507152306 | 21 | 335 | 6.4 | 6.4 | 0.00 | 0.03 | 0.03 | 99 | 1015.6 |
| 20260507151801 | 21 | 135 | 6.4 | 11.3 | 0.00 | 0.03 | 0.03 | 99 | 1015.7 |
| 20260507151257 | 21 | 299 | 3.2 | 9.7 | 0.00 | 0.03 | 0.03 | 99 | 1015.7 |
| 20260507150754 | 21 | 18 | 8.0 | 11.3 | 0.00 | 0.03 | 0.03 | 99 | 1015.8 |
| 20260507150251 | 21 | 284 | 3.2 | 9.7 | 0.00 | 0.03 | 0.03 | 99 | 1015.7 |
| 20260507145747 | 21 | 356 | 6.4 | 11.3 | 0.00 | 0.03 | 0.03 | 99 | 1015.7 |
| 20260507145244 | 21 | 26 | 9.7 | 16.1 | 0.00 | 0.03 | 0.03 | 99 | 1015.6 |
| 20260507144741 | 22 | 302 | 1.6 | 9.7 | 0.00 | 0.03 | 0.03 | 99 | 1015.7 |
| 20260507144238 | 22 | 322 | 8.0 | 16.1 | 0.00 | 0.03 | 0.03 | 99 | 1015.4 |
| 20260507143735 | 22 | 317 | 1.6 | 6.4 | 0.00 | 0.03 | 0.03 | 99 | 1015.5 |
| 20260507143232 | 22 | 334 | 1.6 | 9.7 | 0.00 | 0.03 | 0.03 | 99 | 1015.5 |
| 20260507142728 | 22 | 345 | 6.4 | 9.7 | 0.00 | 0.03 | 0.03 | 99 | 1015.6 |
| 20260507142225 | 22 | 330 | 6.4 | 9.7 | 0.00 | 0.03 | 0.03 | 99 | 1015.2 |
| 20260507141721 | 22 | 302 | 3.2 | 4.8 | 0.00 | 0.03 | 0.03 | 99 | 1015.4 |
| 20260507141218 | 22 | 43 | 4.8 | 9.7 | 0.00 | 0.03 | 0.03 | 99 | 1015.3 |
| 20260507140714 | 22 | 292 | 1.6 | 3.2 | 0.00 | 0.03 | 0.03 | 99 | 1015.4 |
| 20260507140212 | 22 | 329 | 3.2 | 6.4 | 0.13 | 0.03 | 0.03 | 98 | 1015.3 |
| 20260507135709 | 22 | 26 | 6.4 | 14.5 | 0.13 | 0.03 | 0.03 | 98 | 1015.2 |
| 20260507135206 | 22 | 322 | 1.6 | 4.8 | 0.00 | 0.00 | 0.00 | 98 | 1015.3 |
| 20260507134702 | 22 | 287 | 6.4 | 6.4 | 0.00 | 0.00 | 0.00 | 98 | 1015.0 |
| 20260507134159 | 23 | 290 | 3.2 | 16.1 | 0.00 | 0.00 | 0.00 | 98 | 1015.0 |
| 20260507133654 | 23 | 68 | 6.4 | 11.3 | 0.00 | 0.00 | 0.00 | 97 | 1015.1 |
| 20260507133152 | 23 | 336 | 4.8 | 9.7 | 0.00 | 0.00 | 0.00 | 97 | 1015.0 |
| 20260507132649 | 23 | 295 | 4.8 | 12.9 | 0.00 | 0.00 | 0.00 | 96 | 1014.8 |
| 20260507132145 | 25 | 310 | 6.4 | 11.3 | 0.00 | 0.00 | 0.00 | 96 | 1014.6 |
| 20260507131643 | 25 | 232 | 4.8 | 6.4 | 0.00 | 0.00 | 0.00 | 96 | 1014.5 |
| 20260507131140 | 25 | 274 | 3.2 | 6.4 | 0.00 | 0.00 | 0.00 | 96 | 1014.6 |
| 20260507130636 | 25 | 234 | 1.6 | 4.8 | 0.00 | 0.00 | 0.00 | 96 | 1014.7 |
| 20260507130134 | 25 | 218 | 6.4 | 9.7 | 0.00 | 0.00 | 0.00 | 96 | 1014.6 |
| 20260507125633 | 25 | 244 | 3.2 | 9.7 | 0.00 | 0.00 | 0.00 | 96 | 1014.6 |
| 20260507125130 | 25 | 262 | 3.2 | 4.8 | 0.00 | 0.00 | 0.00 | 96 | 1014.6 |